createdAt,value
2019-03-22T00:12:28.671Z,18.10
2019-03-22T00:15:46.277Z,18.10
2019-03-22T00:16:47.080Z,18.05
2019-03-22T00:17:47.853Z,18.04
2019-03-22T00:18:48.419Z,18.00
2019-03-22T00:19:48.991Z,18.01
2019-03-22T00:20:49.563Z,18.01
2019-03-22T00:21:50.190Z,18.03
2019-03-22T00:22:50.764Z,17.95
2019-03-22T00:23:51.335Z,18.03
2019-03-22T00:24:51.908Z,18.01
2019-03-22T00:25:52.483Z,18.01
2019-03-22T00:26:53.052Z,18.00
2019-03-22T00:27:53.628Z,18.01
2019-03-22T00:28:54.251Z,17.98
2019-03-22T00:29:54.825Z,18.03
2019-03-22T00:30:55.450Z,18.00
2019-03-22T00:31:56.074Z,18.01
2019-03-22T00:32:56.650Z,17.98
2019-03-22T00:33:57.224Z,17.98
2019-03-22T00:34:57.849Z,17.97
2019-03-22T00:37:00.081Z,18.00
2019-03-22T00:38:00.649Z,18.00
2019-03-22T00:39:01.216Z,17.98
2019-03-22T00:40:01.836Z,17.90
2019-03-22T00:41:02.401Z,17.87
2019-03-22T00:42:30.452Z,17.92
2019-03-22T00:43:44.791Z,17.89
2019-03-22T00:48:03.906Z,17.87
2019-03-22T01:22:45.393Z,17.45
2019-03-22T01:35:56.726Z,17.42
2019-03-22T01:53:08.384Z,17.44
2019-03-22T01:54:08.946Z,17.27
2019-03-22T01:55:09.563Z,17.31
2019-03-22T01:56:10.175Z,17.34
2019-03-22T01:57:10.792Z,17.27
2019-03-22T02:05:38.003Z,17.26
2019-03-22T02:06:57.737Z,17.24
2019-03-22T02:10:29.197Z,17.24
2019-03-22T02:21:45.220Z,17.15
2019-03-22T02:22:45.937Z,17.14
2019-03-22T02:24:29.451Z,17.15
2019-03-22T02:26:59.198Z,17.20
2019-03-22T02:28:04.460Z,17.14
2019-03-22T02:30:44.487Z,17.16
2019-03-22T02:33:56.313Z,17.19
2019-03-22T02:45:00.881Z,17.06
2019-03-22T02:46:01.495Z,17.06
2019-03-22T02:47:02.104Z,17.05
2019-03-22T02:48:02.634Z,17.02
2019-03-22T02:49:03.196Z,17.06
2019-03-22T02:50:17.126Z,17.04
2019-03-22T02:51:05.381Z,17.04
2019-03-22T02:57:36.012Z,17.06
2019-03-22T02:58:36.578Z,17.02
2019-03-22T02:59:37.186Z,17.02
2019-03-22T03:31:26.821Z,16.96
2019-03-22T03:32:27.508Z,16.89
2019-03-22T03:33:28.051Z,16.93
2019-03-22T03:34:28.761Z,17.01
2019-03-22T03:35:29.393Z,16.93
2019-03-22T03:36:29.943Z,16.93
2019-03-22T03:37:30.508Z,16.90
2019-03-22T03:38:31.127Z,16.89
2019-03-22T03:39:31.742Z,16.93
2019-03-22T03:40:32.359Z,16.90
2019-03-22T03:41:32.933Z,16.93
2019-03-22T03:42:33.499Z,16.93
2019-03-22T03:43:34.068Z,16.90
2019-03-22T03:44:34.638Z,16.90
2019-03-22T03:45:35.208Z,16.93
2019-03-22T03:46:35.815Z,16.89
2019-03-22T03:47:36.432Z,16.90
2019-03-22T03:48:37.051Z,16.90
2019-03-22T03:49:37.629Z,16.89
2019-03-22T03:50:38.243Z,16.94
2019-03-22T03:51:38.840Z,16.93
2019-03-22T03:52:39.755Z,16.94
2019-03-22T03:53:40.407Z,16.89
2019-03-22T04:00:20.470Z,16.96
2019-03-22T04:17:04.044Z,16.97
2019-03-22T04:23:14.015Z,16.94
2019-03-22T04:24:14.596Z,16.90
2019-03-22T04:25:36.917Z,16.89
2019-03-22T04:26:37.497Z,16.93
2019-03-22T04:29:57.308Z,16.91
2019-03-22T04:46:22.473Z,16.89
2019-03-22T04:51:45.126Z,16.86
2019-03-22T04:52:45.743Z,16.83
2019-03-22T04:53:46.306Z,16.87
2019-03-22T04:59:58.314Z,16.86
2019-03-22T05:00:58.891Z,16.86
2019-03-22T05:01:59.448Z,16.84
2019-03-22T05:03:00.102Z,16.81
2019-03-22T05:04:15.370Z,16.81
2019-03-22T05:07:31.189Z,16.81
2019-03-22T05:19:50.437Z,16.79
2019-03-22T05:29:42.739Z,16.75
2019-03-22T05:30:43.295Z,16.66
2019-03-22T05:31:43.917Z,16.68
2019-03-22T05:33:46.250Z,16.64
2019-03-22T05:34:46.815Z,16.65
2019-03-22T05:35:47.432Z,16.71
2019-03-22T05:36:47.999Z,16.64
2019-03-22T05:37:48.615Z,16.76
2019-03-22T05:38:49.229Z,16.66
2019-03-22T05:39:49.794Z,16.61
2019-03-22T05:40:50.364Z,16.60
2019-03-22T05:42:52.486Z,16.61
2019-03-22T05:43:53.053Z,16.61
2019-03-22T05:44:53.621Z,16.65
2019-03-22T05:45:54.188Z,16.61
2019-03-22T05:47:56.315Z,16.60
2019-03-22T05:51:13.878Z,16.69
2019-03-22T05:52:14.502Z,16.64
2019-03-22T05:53:15.128Z,16.71
2019-03-22T05:54:15.702Z,16.65
2019-03-22T05:55:16.278Z,16.68
2019-03-22T05:57:18.510Z,16.64
2019-03-22T05:58:19.076Z,16.65
2019-03-22T05:59:19.642Z,16.61
2019-03-22T06:00:20.208Z,16.65
2019-03-22T06:03:35.655Z,16.68
2019-03-22T06:04:36.270Z,16.60
2019-03-22T06:05:36.837Z,16.64
2019-03-22T06:06:37.403Z,16.58
2019-03-22T06:07:37.971Z,16.66
2019-03-22T06:08:38.536Z,16.61
2019-03-22T06:09:39.153Z,16.60
2019-03-22T06:10:39.768Z,16.65
2019-03-22T06:11:40.335Z,16.60
2019-03-22T06:12:40.928Z,16.69
2019-03-22T06:13:44.247Z,16.65
2019-03-22T06:14:42.166Z,16.60
2019-03-22T06:15:42.734Z,16.61
2019-03-22T06:16:43.354Z,16.57
2019-03-22T06:17:51.627Z,16.64
2019-03-22T06:18:45.528Z,16.65
2019-03-22T06:19:46.095Z,16.64
2019-03-22T06:23:39.253Z,16.58
2019-03-22T06:24:39.819Z,16.68
2019-03-22T06:25:40.384Z,16.68
2019-03-22T06:26:40.953Z,16.61
2019-03-22T06:27:41.517Z,16.68
2019-03-22T06:35:03.052Z,16.58
2019-03-22T06:36:03.821Z,16.68
2019-03-22T06:39:08.767Z,16.61
2019-03-22T06:40:23.110Z,16.61
2019-03-22T06:57:41.381Z,16.53
2019-03-22T06:58:41.946Z,16.57
2019-03-22T06:59:42.570Z,16.54
2019-03-22T07:00:43.142Z,16.60
2019-03-22T07:01:43.714Z,16.56
2019-03-22T07:02:44.286Z,16.53
2019-03-22T07:03:44.935Z,16.57
2019-03-22T07:04:45.543Z,16.50
2019-03-22T07:05:46.074Z,16.54
2019-03-22T07:06:46.645Z,16.57
2019-03-22T07:07:47.217Z,16.57
2019-03-22T07:08:47.788Z,16.58
2019-03-22T07:09:48.360Z,16.58
2019-03-22T07:10:48.982Z,16.50
2019-03-22T07:11:49.556Z,16.51
2019-03-22T07:12:50.127Z,16.53
2019-03-22T07:13:50.699Z,16.60
2019-03-22T07:14:51.271Z,16.51
2019-03-22T07:15:51.844Z,16.50
2019-03-22T07:16:52.416Z,16.53
2019-03-22T07:17:52.989Z,16.57
2019-03-22T07:18:53.561Z,16.58
2019-03-22T07:19:54.184Z,16.61
2019-03-22T07:20:54.956Z,16.50
2019-03-22T07:21:55.530Z,16.46
2019-03-22T07:22:56.105Z,16.47
2019-03-22T07:23:56.727Z,16.47
2019-03-22T07:24:57.301Z,16.53
2019-03-22T07:25:57.922Z,16.57
2019-03-22T07:26:58.497Z,16.53
2019-03-22T07:27:59.070Z,16.49
2019-03-22T07:28:59.642Z,16.56
2019-03-22T07:30:00.374Z,16.51
2019-03-22T07:31:00.829Z,16.51
2019-03-22T07:32:01.404Z,16.58
2019-03-22T07:33:02.028Z,16.69
2019-03-22T07:34:02.651Z,16.68
2019-03-22T07:35:03.223Z,16.57
2019-03-22T07:36:03.794Z,16.60
2019-03-22T07:37:04.367Z,16.58
2019-03-22T07:38:04.939Z,16.57
2019-03-22T07:39:05.512Z,16.54
2019-03-22T07:40:06.134Z,16.57
2019-03-22T07:41:06.759Z,16.56
2019-03-22T07:42:07.333Z,16.58
2019-03-22T07:43:07.907Z,16.53
2019-03-22T07:44:08.531Z,16.54
2019-03-22T07:45:09.070Z,16.57
2019-03-22T07:46:09.695Z,16.51
2019-03-22T07:47:10.267Z,16.56
2019-03-22T07:48:10.885Z,16.57
2019-03-22T07:49:11.459Z,16.51
2019-03-22T07:50:12.030Z,16.58
2019-03-22T07:51:12.606Z,16.57
2019-03-22T07:52:13.225Z,16.57
2019-03-22T07:53:13.800Z,16.57
2019-03-22T07:54:14.372Z,16.61
2019-03-22T07:55:14.948Z,16.56
2019-03-22T07:56:15.521Z,16.61
2019-03-22T07:57:16.154Z,16.64
2019-03-22T07:58:16.869Z,16.58
2019-03-22T07:59:17.444Z,16.57
2019-03-22T08:00:29.856Z,16.60
2019-03-22T08:01:19.633Z,16.68
2019-03-22T08:02:20.206Z,16.69
2019-03-22T08:03:20.828Z,16.75
2019-03-22T08:04:21.402Z,16.71
2019-03-22T08:05:22.026Z,16.76
2019-03-22T08:06:22.598Z,16.66
2019-03-22T08:07:23.219Z,16.76
2019-03-22T08:08:23.842Z,16.78
2019-03-22T08:09:24.424Z,16.74
2019-03-22T08:10:24.988Z,16.79
2019-03-22T08:11:25.569Z,16.78
2019-03-22T08:12:26.156Z,16.81
2019-03-22T08:13:26.711Z,16.69
2019-03-22T08:14:27.334Z,16.83
2019-03-22T08:15:27.930Z,16.81
2019-03-22T08:16:28.530Z,16.81
2019-03-22T08:17:29.103Z,16.81
2019-03-22T08:18:29.679Z,16.75
2019-03-22T08:19:30.259Z,16.72
2019-03-22T08:20:30.832Z,16.81
2019-03-22T08:21:31.425Z,16.76
2019-03-22T08:22:32.002Z,16.79
2019-03-22T08:23:32.558Z,16.81
2019-03-22T08:24:33.195Z,16.83
2019-03-22T08:25:33.751Z,16.83
2019-03-22T08:26:34.379Z,16.83
2019-03-22T08:27:34.998Z,16.84
2019-03-22T08:28:35.619Z,16.86
2019-03-22T08:29:36.164Z,16.87
2019-03-22T08:30:42.858Z,16.89
2019-03-22T08:31:37.424Z,16.93
2019-03-22T08:32:37.989Z,16.86
2019-03-22T08:33:38.599Z,16.90
2019-03-22T08:34:39.171Z,16.93
2019-03-22T08:35:39.760Z,16.89
2019-03-22T08:36:40.335Z,16.87
2019-03-22T08:37:52.061Z,16.81
2019-03-22T08:38:42.516Z,16.89
2019-03-22T08:39:43.106Z,16.94
2019-03-22T08:40:43.659Z,16.89
2019-03-22T08:41:44.229Z,16.90
2019-03-22T08:42:44.803Z,16.91
2019-03-22T08:43:45.375Z,16.79
2019-03-22T08:44:45.961Z,16.90
2019-03-22T08:45:46.522Z,16.91
2019-03-22T08:46:47.187Z,16.83
2019-03-22T08:47:47.922Z,16.91
2019-03-22T08:48:48.505Z,16.87
2019-03-22T08:49:49.218Z,16.91
2019-03-22T08:50:49.756Z,16.96
2019-03-22T08:51:50.331Z,16.96
2019-03-22T08:52:50.958Z,16.94
2019-03-22T08:53:55.596Z,16.97
2019-03-22T08:54:53.165Z,16.96
2019-03-22T08:55:53.813Z,16.94
2019-03-22T08:56:54.352Z,16.97
2019-03-22T08:57:54.949Z,16.99
2019-03-22T08:58:55.523Z,16.93
2019-03-22T08:59:56.070Z,16.89
2019-03-22T09:00:58.131Z,16.97
2019-03-22T09:01:57.333Z,16.94
2019-03-22T09:02:57.906Z,16.99
2019-03-22T09:03:58.457Z,16.96
2019-03-22T09:04:59.048Z,16.89
2019-03-22T09:05:59.619Z,16.97
2019-03-22T09:07:00.245Z,16.90
2019-03-22T09:08:00.861Z,16.93
2019-03-22T09:09:01.442Z,16.86
2019-03-22T09:10:02.007Z,16.96
2019-03-22T09:11:02.710Z,16.93
2019-03-22T09:12:03.383Z,16.94
2019-03-22T09:13:03.950Z,17.01
2019-03-22T09:14:04.535Z,16.97
2019-03-22T09:15:05.112Z,16.96
2019-03-22T09:16:05.681Z,16.99
2019-03-22T09:17:06.260Z,17.01
2019-03-22T09:18:06.901Z,17.01
2019-03-22T09:19:07.465Z,17.02
2019-03-22T09:20:08.028Z,16.97
2019-03-22T09:21:08.629Z,17.01
2019-03-22T09:22:09.228Z,17.06
2019-03-22T09:23:09.850Z,17.02
2019-03-22T09:24:10.391Z,17.02
2019-03-22T09:25:10.976Z,17.04
2019-03-22T09:26:11.587Z,17.08
2019-03-22T09:27:12.174Z,17.08
2019-03-22T09:28:12.747Z,17.08
2019-03-22T09:29:13.358Z,17.08
2019-03-22T09:30:13.936Z,17.01
2019-03-22T09:31:14.577Z,17.08
2019-03-22T09:32:15.155Z,17.05
2019-03-22T09:33:15.714Z,17.09
2019-03-22T09:34:16.335Z,17.08
2019-03-22T09:35:16.899Z,17.08
2019-03-22T09:36:17.541Z,17.15
2019-03-22T09:37:18.177Z,17.19
2019-03-22T09:38:18.697Z,17.08
2019-03-22T09:39:19.271Z,17.16
2019-03-22T09:40:19.903Z,17.08
2019-03-22T09:41:20.474Z,17.20
2019-03-22T09:42:21.099Z,17.12
2019-03-22T09:43:21.668Z,17.08
2019-03-22T09:44:22.243Z,17.22
2019-03-22T09:45:22.819Z,17.20
2019-03-22T09:46:23.446Z,17.26
2019-03-22T09:47:24.034Z,17.23
2019-03-22T09:48:24.629Z,17.27
2019-03-22T09:49:25.190Z,17.29
2019-03-22T09:50:25.741Z,17.31
2019-03-22T09:51:26.369Z,17.31
2019-03-22T09:52:27.039Z,17.38
2019-03-22T09:53:30.357Z,17.31
2019-03-22T09:54:29.132Z,17.39
2019-03-22T09:55:29.765Z,17.36
2019-03-22T09:56:30.337Z,17.33
2019-03-22T09:57:30.903Z,17.29
2019-03-22T09:58:31.658Z,17.29
2019-03-22T09:59:32.212Z,17.27
2019-03-22T10:00:32.837Z,17.29
2019-03-22T10:01:33.394Z,17.36
2019-03-22T10:02:33.953Z,17.42
2019-03-22T10:03:34.529Z,17.38
2019-03-22T10:04:35.104Z,17.41
2019-03-22T10:05:35.701Z,17.39
2019-03-22T10:06:36.303Z,17.36
2019-03-22T10:07:37.027Z,17.41
2019-03-22T10:08:37.659Z,17.44
2019-03-22T10:09:38.269Z,17.41
2019-03-22T10:10:38.905Z,17.48
2019-03-22T10:11:39.430Z,17.45
2019-03-22T10:12:40.062Z,17.46
2019-03-22T10:13:40.696Z,17.46
2019-03-22T10:14:41.219Z,17.46
2019-03-22T10:15:41.796Z,17.46
2019-03-22T10:16:42.386Z,17.49
2019-03-22T10:17:42.955Z,17.63
2019-03-22T10:18:43.576Z,17.46
2019-03-22T10:19:44.106Z,17.54
2019-03-22T10:20:44.737Z,17.56
2019-03-22T10:21:45.330Z,17.52
2019-03-22T10:22:45.902Z,17.56
2019-03-22T10:23:46.527Z,17.59
2019-03-22T10:24:47.113Z,17.63
2019-03-22T10:25:47.680Z,17.63
2019-03-22T10:26:48.261Z,17.67
2019-03-22T10:27:48.826Z,17.72
2019-03-22T10:28:49.466Z,17.67
2019-03-22T10:29:50.119Z,17.70
2019-03-22T10:30:50.708Z,17.71
2019-03-22T10:31:51.332Z,17.68
2019-03-22T10:32:51.876Z,17.71
2019-03-22T10:33:52.436Z,17.72
2019-03-22T10:34:53.011Z,17.71
2019-03-22T10:35:53.587Z,17.71
2019-03-22T10:36:54.162Z,17.71
2019-03-22T10:38:00.358Z,17.76
2019-03-22T10:38:56.433Z,17.76
2019-03-22T10:39:57.049Z,17.71
2019-03-22T10:40:57.706Z,17.79
2019-03-22T10:41:58.297Z,17.80
2019-03-22T10:42:58.873Z,17.78
2019-03-22T10:43:59.446Z,17.80
2019-03-22T10:45:00.019Z,17.90
2019-03-22T10:46:00.779Z,17.87
2019-03-22T10:47:01.358Z,17.82
2019-03-22T10:48:01.895Z,17.90
2019-03-22T10:49:02.530Z,17.86
2019-03-22T10:50:03.069Z,17.87
2019-03-22T10:51:03.685Z,17.90
2019-03-22T10:52:04.671Z,17.90
2019-03-22T10:53:05.285Z,17.92
2019-03-22T10:54:05.891Z,17.89
2019-03-22T10:55:23.473Z,17.95
2019-03-22T10:56:08.053Z,17.98
2019-03-22T10:57:08.629Z,18.01
2019-03-22T10:58:20.208Z,18.00
2019-03-22T10:59:10.819Z,18.04
2019-03-22T11:00:11.394Z,18.00
2019-03-22T11:01:11.969Z,17.98
2019-03-22T11:02:12.544Z,18.10
2019-03-22T11:03:13.118Z,18.15
2019-03-22T11:04:13.694Z,18.08
2019-03-22T11:05:14.269Z,18.08
2019-03-22T11:06:14.842Z,18.10
2019-03-22T11:07:15.473Z,18.08
2019-03-22T11:08:16.044Z,18.13
2019-03-22T11:09:16.619Z,18.04
2019-03-22T11:10:17.197Z,18.15
2019-03-22T11:11:17.820Z,18.18
2019-03-22T11:12:18.443Z,18.18
2019-03-22T11:13:19.018Z,18.29
2019-03-22T11:14:19.598Z,18.20
2019-03-22T11:15:20.170Z,18.13
2019-03-22T11:16:20.748Z,18.10
2019-03-22T11:17:21.323Z,18.18
2019-03-22T11:18:21.898Z,18.08
2019-03-22T11:19:22.472Z,18.23
2019-03-22T11:20:23.047Z,18.16
2019-03-22T11:21:23.622Z,18.18
2019-03-22T11:22:24.197Z,18.19
2019-03-22T11:23:24.772Z,18.20
2019-03-22T11:24:25.388Z,18.25
2019-03-22T11:25:25.963Z,18.23
2019-03-22T11:26:26.592Z,18.18
2019-03-22T11:27:27.168Z,18.18
2019-03-22T11:28:27.742Z,18.22
2019-03-22T11:29:28.318Z,18.28
2019-03-22T11:30:28.891Z,18.23
2019-03-22T11:31:35.967Z,18.26
2019-03-22T11:32:31.087Z,18.28
2019-03-22T11:33:31.659Z,18.23
2019-03-22T11:34:32.234Z,18.28
2019-03-22T11:35:32.809Z,18.33
2019-03-22T11:36:33.383Z,18.28
2019-03-22T11:37:33.958Z,18.29
2019-03-22T11:38:34.534Z,18.38
2019-03-22T11:39:35.110Z,18.33
2019-03-22T11:40:35.686Z,18.40
2019-03-22T11:41:36.306Z,18.34
2019-03-22T11:42:36.881Z,18.35
2019-03-22T11:43:37.458Z,18.37
2019-03-22T11:44:38.082Z,18.37
2019-03-22T11:45:38.656Z,18.40
2019-03-22T11:46:39.232Z,18.38
2019-03-22T11:47:39.808Z,18.40
2019-03-22T11:48:40.382Z,18.40
2019-03-22T11:49:40.958Z,18.45
2019-03-22T11:50:41.532Z,18.43
2019-03-22T11:51:42.157Z,18.38
2019-03-22T11:52:42.735Z,18.47
2019-03-22T11:53:43.309Z,18.40
2019-03-22T11:54:43.886Z,18.43
2019-03-22T11:55:44.462Z,18.47
2019-03-22T11:56:45.039Z,18.43
2019-03-22T11:57:45.615Z,18.38
2019-03-22T11:58:46.191Z,18.43
2019-03-22T11:59:46.767Z,18.50
2019-03-22T12:00:47.339Z,18.47
2019-03-22T12:01:47.915Z,18.56
2019-03-22T12:02:48.498Z,18.56
2019-03-22T12:03:49.116Z,18.56
2019-03-22T12:04:49.692Z,18.60
2019-03-22T12:05:50.272Z,18.56
2019-03-22T12:06:50.935Z,18.55
2019-03-22T12:07:51.560Z,18.49
2019-03-22T12:08:52.138Z,18.52
2019-03-22T12:09:52.763Z,18.53
2019-03-22T12:10:53.340Z,18.56
2019-03-22T12:11:53.913Z,18.55
2019-03-22T12:12:54.540Z,18.52
2019-03-22T12:13:55.114Z,18.50
2019-03-22T12:14:55.689Z,18.55
2019-03-22T12:15:56.358Z,18.50
2019-03-22T12:16:56.934Z,18.68
2019-03-22T12:17:57.511Z,18.50
2019-03-22T12:18:58.089Z,18.62
2019-03-22T12:19:58.670Z,18.56
2019-03-22T12:20:59.244Z,18.58
2019-03-22T12:21:59.819Z,18.56
2019-03-22T12:23:00.397Z,18.56
2019-03-22T12:24:00.970Z,18.58
2019-03-22T12:25:01.596Z,18.66
2019-03-22T12:26:02.169Z,18.60
2019-03-22T12:27:02.796Z,18.59
2019-03-22T12:28:03.371Z,18.60
2019-03-22T12:29:03.999Z,18.55
2019-03-22T12:30:04.669Z,18.53
2019-03-22T12:31:05.296Z,18.66
2019-03-22T12:32:05.973Z,18.62
2019-03-22T12:33:06.599Z,18.66
2019-03-22T12:34:07.274Z,18.55
2019-03-22T12:35:07.847Z,18.53
2019-03-22T12:36:08.422Z,18.62
2019-03-22T12:37:08.996Z,18.62
2019-03-22T12:38:09.673Z,18.62
2019-03-22T12:39:10.249Z,18.62
2019-03-22T12:40:10.826Z,18.59
2019-03-22T12:41:11.447Z,18.58
2019-03-22T12:42:12.022Z,18.60
2019-03-22T12:43:12.599Z,18.60
2019-03-22T12:44:13.173Z,18.58
2019-03-22T12:45:13.748Z,18.63
2019-03-22T12:46:14.323Z,18.63
2019-03-22T12:47:14.899Z,18.62
2019-03-22T12:48:15.474Z,18.66
2019-03-22T12:49:16.101Z,18.60
2019-03-22T12:50:16.726Z,18.62
2019-03-22T12:51:17.351Z,18.58
2019-03-22T12:52:17.975Z,18.53
2019-03-22T12:53:18.556Z,18.60
2019-03-22T12:54:19.224Z,18.62
2019-03-22T12:55:19.799Z,18.63
2019-03-22T12:56:20.423Z,18.62
2019-03-22T12:57:21.003Z,18.66
2019-03-22T12:58:21.578Z,18.59
2019-03-22T12:59:22.204Z,18.59
2019-03-22T13:00:22.784Z,18.65
2019-03-22T13:01:23.354Z,18.58
2019-03-22T13:02:23.928Z,18.59
2019-03-22T13:03:24.534Z,18.63
2019-03-22T13:04:25.079Z,18.66
2019-03-22T13:05:25.655Z,18.66
2019-03-22T13:06:26.229Z,18.60
2019-03-22T13:07:26.804Z,18.63
2019-03-22T13:08:27.386Z,18.65
2019-03-22T13:09:28.009Z,18.65
2019-03-22T13:10:28.583Z,18.63
2019-03-22T13:11:29.156Z,18.59
2019-03-22T13:12:29.731Z,18.60
2019-03-22T13:13:30.306Z,18.55
2019-03-22T13:14:30.971Z,18.59
2019-03-22T13:15:31.509Z,18.63
2019-03-22T13:16:32.085Z,18.65
2019-03-22T13:17:32.659Z,18.63
2019-03-22T13:18:33.313Z,18.65
2019-03-22T13:19:33.895Z,18.60
2019-03-22T13:20:34.476Z,18.59
2019-03-22T13:21:35.048Z,18.60
2019-03-22T13:22:35.623Z,18.63
2019-03-22T13:23:36.200Z,18.65
2019-03-22T13:24:36.774Z,18.65
2019-03-22T13:25:37.353Z,18.60
2019-03-22T13:26:37.927Z,18.62
2019-03-22T13:27:38.500Z,18.65
2019-03-22T13:28:39.075Z,18.62
2019-03-22T13:29:39.700Z,18.63
2019-03-22T13:30:40.329Z,18.63
2019-03-22T13:31:40.902Z,18.63
2019-03-22T13:32:41.478Z,18.63
2019-03-22T13:33:42.053Z,18.73
2019-03-22T13:34:42.677Z,18.62
2019-03-22T13:35:43.453Z,18.65
2019-03-22T13:36:44.028Z,18.65
2019-03-22T13:37:44.606Z,18.62
2019-03-22T13:38:45.181Z,18.71
2019-03-22T13:39:45.757Z,18.71
2019-03-22T13:40:46.333Z,18.74
2019-03-22T13:41:46.908Z,18.77
2019-03-22T13:42:47.531Z,18.77
2019-03-22T13:43:48.108Z,18.74
2019-03-22T13:44:48.688Z,18.80
2019-03-22T13:45:49.316Z,18.83
2019-03-22T13:46:50.189Z,18.77
2019-03-22T13:47:50.767Z,18.75
2019-03-22T13:48:51.343Z,18.77
2019-03-22T13:49:51.920Z,18.86
2019-03-22T13:51:54.106Z,18.81
2019-03-22T13:52:54.724Z,18.83
2019-03-22T13:53:55.291Z,18.74
2019-03-22T13:54:55.902Z,18.86
2019-03-22T13:55:56.519Z,18.89
2019-03-22T13:56:57.089Z,18.88
2019-03-22T13:57:57.656Z,18.86
2019-03-22T13:58:58.225Z,18.88
2019-03-22T13:59:58.800Z,18.88
2019-03-22T14:00:59.361Z,18.89
2019-03-22T14:01:59.948Z,18.90
2019-03-22T14:03:03.072Z,18.88
2019-03-22T14:04:02.138Z,18.89
2019-03-22T14:05:02.730Z,18.83
2019-03-22T14:06:03.309Z,18.86
2019-03-22T14:07:03.881Z,18.86
2019-03-22T14:08:04.511Z,18.90
2019-03-22T14:09:05.083Z,18.89
2019-03-22T14:10:05.712Z,18.93
2019-03-22T14:11:06.286Z,18.92
2019-03-22T14:13:08.525Z,18.96
2019-03-22T14:14:09.096Z,18.93
2019-03-22T14:15:55.417Z,18.98
2019-03-22T14:16:56.034Z,18.90
2019-03-22T14:18:10.324Z,18.90
2019-03-22T14:21:06.218Z,18.99
2019-03-22T14:22:06.786Z,19.02
2019-03-22T14:23:07.355Z,18.99
2019-03-22T14:24:07.974Z,18.96
2019-03-22T14:25:08.542Z,18.98
2019-03-22T14:26:09.120Z,19.00
2019-03-22T14:27:09.699Z,18.96
2019-03-22T14:28:10.477Z,19.02
2019-03-22T14:29:11.094Z,19.00
2019-03-22T14:30:11.720Z,19.02
2019-03-22T14:31:12.297Z,19.04
2019-03-22T14:33:14.435Z,18.99
2019-03-22T14:37:33.479Z,19.08
2019-03-22T14:38:34.057Z,19.04
2019-03-22T14:39:34.635Z,19.11
2019-03-22T14:40:35.261Z,19.07
2019-03-22T14:41:35.839Z,19.12
2019-03-22T14:46:02.875Z,19.09
2019-03-22T14:48:18.767Z,19.14
2019-03-22T14:49:25.602Z,19.09
2019-03-22T14:51:27.736Z,19.15
2019-03-22T14:52:42.018Z,19.18
2019-03-22T14:53:42.585Z,19.08
2019-03-22T14:54:43.153Z,19.22
2019-03-22T14:55:43.775Z,19.16
2019-03-22T14:56:44.343Z,19.15
2019-03-22T14:59:00.343Z,19.12
2019-03-22T15:00:00.920Z,19.18
2019-03-22T15:01:01.646Z,19.18
2019-03-22T15:02:02.222Z,19.14
2019-03-22T15:05:06.022Z,19.08
2019-03-22T15:07:19.387Z,19.12
2019-03-22T15:08:16.039Z,19.14
2019-03-22T15:12:35.156Z,19.15
2019-03-22T15:13:57.499Z,19.18
2019-03-22T15:15:59.643Z,19.16
2019-03-22T15:17:00.224Z,19.16
2019-03-22T15:19:02.361Z,19.18
2019-03-22T15:21:22.217Z,19.18
2019-03-22T15:22:40.708Z,19.22
2019-03-22T15:23:41.334Z,19.21
2019-03-22T15:24:41.963Z,19.29
2019-03-22T15:27:14.557Z,19.26
2019-03-22T15:29:34.416Z,19.19
2019-03-22T15:30:35.086Z,19.24
2019-03-22T15:32:54.937Z,19.31
2019-03-22T15:34:09.422Z,19.26
2019-03-22T15:35:10.107Z,19.30
2019-03-22T15:38:13.956Z,19.31
2019-03-22T15:41:35.427Z,19.37
2019-03-22T15:42:36.003Z,19.41
2019-03-22T15:44:38.144Z,19.37
2019-03-22T15:47:41.846Z,19.40
2019-03-22T15:48:42.427Z,19.44
2019-03-22T15:49:43.052Z,19.45
2019-03-22T15:50:43.630Z,19.47
2019-03-22T15:51:44.205Z,19.41
2019-03-22T15:52:44.831Z,19.44
2019-03-22T15:53:45.410Z,19.44
2019-03-22T15:54:45.988Z,19.47
2019-03-22T15:55:46.616Z,19.48
2019-03-22T15:56:47.194Z,19.48
2019-03-22T15:57:47.775Z,19.44
2019-03-22T15:58:48.354Z,19.54
2019-03-22T15:59:48.933Z,19.52
2019-03-22T16:00:49.531Z,19.62
2019-03-22T16:01:50.131Z,19.55
2019-03-22T16:02:50.710Z,19.54
2019-03-22T16:03:51.286Z,19.54
2019-03-22T16:04:51.865Z,19.55
2019-03-22T16:05:52.444Z,19.59
2019-03-22T16:06:53.075Z,19.59
2019-03-22T16:07:53.653Z,19.49
2019-03-22T16:09:55.991Z,19.59
2019-03-22T16:10:56.563Z,19.63
2019-03-22T16:11:57.181Z,19.66
2019-03-22T16:12:57.801Z,19.51
2019-03-22T16:13:58.423Z,19.59
2019-03-22T16:16:28.178Z,19.64
2019-03-22T16:17:28.756Z,19.58
2019-03-22T16:18:29.335Z,19.63
2019-03-22T16:19:30.900Z,19.52
2019-03-22T16:20:31.471Z,19.66
2019-03-22T16:22:13.841Z,19.58
2019-03-22T16:30:53.192Z,19.73
2019-03-22T16:32:55.328Z,19.74
2019-03-22T16:35:11.241Z,19.76
2019-03-22T16:39:16.617Z,19.76
2019-03-22T16:40:34.904Z,19.76
2019-03-22T16:41:35.474Z,19.84
2019-03-22T16:44:57.104Z,19.82
2019-03-22T16:47:52.398Z,19.81
2019-03-22T16:50:40.490Z,19.88
2019-03-22T16:51:41.072Z,19.88
2019-03-22T16:53:43.264Z,19.86
2019-03-22T16:57:00.889Z,19.92
2019-03-22T16:58:27.188Z,19.82
2019-03-22T17:02:48.145Z,19.99
2019-03-22T17:04:11.709Z,19.89
2019-03-22T17:07:20.788Z,19.92
2019-03-22T17:09:23.141Z,20.06
2019-03-22T17:10:23.719Z,19.92
2019-03-22T17:12:51.636Z,19.88
2019-03-22T17:13:52.213Z,19.92
2019-03-22T17:14:52.794Z,20.03
2019-03-22T17:15:53.370Z,19.88
2019-03-22T17:16:53.951Z,19.92
2019-03-22T17:27:35.905Z,19.96
2019-03-22T17:32:12.806Z,19.99
2019-03-22T17:33:13.424Z,19.92
2019-03-22T17:35:18.347Z,20.00
2019-03-22T17:37:38.263Z,19.91
2019-03-22T17:39:23.345Z,19.94
2019-03-22T17:40:24.176Z,19.94
2019-03-22T17:41:24.795Z,19.95
2019-03-22T17:42:25.422Z,19.95
2019-03-22T17:43:26.000Z,19.96
2019-03-22T17:44:26.579Z,19.92
2019-03-22T17:47:30.489Z,19.92
2019-03-22T17:49:34.305Z,19.89
2019-03-22T18:00:14.302Z,19.88
2019-03-22T18:07:15.611Z,19.88
2019-03-22T18:08:16.388Z,19.81
2019-03-22T18:09:17.260Z,19.89
2019-03-22T18:10:17.839Z,19.89
2019-03-22T18:11:18.414Z,19.88
2019-03-22T18:12:18.991Z,19.85
2019-03-22T18:13:19.567Z,19.86
2019-03-22T18:14:20.149Z,19.82
2019-03-22T18:15:20.723Z,19.76
2019-03-22T18:16:21.301Z,19.84
2019-03-22T18:17:21.875Z,19.82
2019-03-22T18:18:22.449Z,19.85
2019-03-22T18:19:23.085Z,19.76
2019-03-22T18:20:23.654Z,19.77
2019-03-22T18:21:24.228Z,19.84
2019-03-22T18:22:24.809Z,19.73
2019-03-22T18:24:40.799Z,19.73
2019-03-22T18:25:41.423Z,19.76
2019-03-22T18:26:42.039Z,19.77
2019-03-22T18:27:42.608Z,19.81
2019-03-22T18:28:43.178Z,19.70
2019-03-22T18:29:43.746Z,19.66
2019-03-22T18:30:44.414Z,19.76
2019-03-22T18:34:12.934Z,19.64
2019-03-22T18:47:36.128Z,19.54
2019-03-22T18:53:39.119Z,19.41
2019-03-22T19:03:06.917Z,19.41
2019-03-22T19:06:42.814Z,19.41
2019-03-22T19:08:44.999Z,19.37
2019-03-22T19:13:18.212Z,19.33
2019-03-22T19:14:18.831Z,19.36
2019-03-22T19:15:33.164Z,19.29
2019-03-22T20:42:16.703Z,18.65
2019-03-22T20:43:17.323Z,18.62
2019-03-22T20:45:24.131Z,18.60
2019-03-22T20:46:21.067Z,18.66
2019-03-22T20:47:21.634Z,18.60
2019-03-22T20:48:22.203Z,18.58
2019-03-22T20:49:22.768Z,18.63
2019-03-22T20:50:23.386Z,18.65
2019-03-22T20:51:24.053Z,18.58
2019-03-22T20:52:24.670Z,18.59
2019-03-22T20:53:25.241Z,18.50
2019-03-22T20:54:25.806Z,18.58
2019-03-22T20:55:26.373Z,18.60
2019-03-22T20:56:26.940Z,18.65
2019-03-22T20:57:27.508Z,18.52
2019-03-22T20:58:28.127Z,18.52
2019-03-22T20:59:28.697Z,18.58
2019-03-22T21:00:29.316Z,18.55
2019-03-22T21:01:29.936Z,18.56
2019-03-22T21:02:30.506Z,18.71
2019-03-22T21:03:31.073Z,18.53
2019-03-22T21:04:31.691Z,18.56
2019-03-22T21:05:32.263Z,18.50
2019-03-22T21:06:32.833Z,18.50
2019-03-22T21:07:33.423Z,18.53
2019-03-22T21:08:34.052Z,18.49
2019-03-22T21:09:34.623Z,18.53
2019-03-22T21:10:35.181Z,18.50
2019-03-22T21:11:35.788Z,18.56
2019-03-22T21:12:36.356Z,18.52
2019-03-22T21:13:36.926Z,18.49
2019-03-22T21:14:37.494Z,18.53
2019-03-22T21:15:38.067Z,18.44
2019-03-22T21:16:38.721Z,18.56
2019-03-22T21:17:39.253Z,18.55
2019-03-22T21:18:39.878Z,18.59
2019-03-22T21:19:40.448Z,18.53
2019-03-22T21:20:41.018Z,18.52